Time;durP1;ratioP1;P1;durP2;ratioP2;P2;SDS_P1;SDS_P2;PMS_P1;PMS_P2;Temp;Humidity;BMP_temperature;BMP_pressure;BME280_temperature;BME280_humidity;BME280_pressure;Samples;Min_cycle;Max_cycle;Signal;HPM_P1;HPM_P2
2021/03/10 00:00:12;;;;;;;4.60;4.30;;;5.50;99.90;;;;;;4984294;28;20223;-75
2021/03/10 00:02:39;;;;;;;4.88;4.47;;;5.40;99.90;;;;;;4979313;28;20220;-75
2021/03/10 00:05:07;;;;;;;4.80;4.40;;;5.40;99.90;;;;;;4985492;28;20236;-76
2021/03/10 00:07:35;;;;;;;4.47;4.10;;;5.40;99.90;;;;;;4983905;28;20236;-76
2021/03/10 00:10:02;;;;;;;4.78;4.45;;;5.40;99.90;;;;;;4986295;28;20229;-75
2021/03/10 00:12:29;;;;;;;4.20;3.90;;;5.40;99.90;;;;;;4985002;28;20453;-73
2021/03/10 00:14:56;;;;;;;4.53;4.22;;;5.40;99.90;;;;;;4985317;28;20221;-75
2021/03/10 00:17:22;;;;;;;4.82;4.43;;;5.30;99.90;;;;;;4992517;28;20228;-76
2021/03/10 00:19:49;;;;;;;4.38;3.97;;;5.30;99.90;;;;;;4972204;28;20243;-76
2021/03/10 00:22:15;;;;;;;4.10;3.80;;;5.20;99.90;;;;;;4966474;28;20235;-75
2021/03/10 00:24:42;;;;;;;4.35;4.05;;;5.20;99.90;;;;;;4985163;28;20225;-75
2021/03/10 00:27:09;;;;;;;4.30;4.00;;;5.10;99.90;;;;;;4984769;28;20232;-75
2021/03/10 00:29:36;;;;;;;4.97;4.57;;;5.10;99.90;;;;;;4984528;28;20236;-76
2021/03/10 00:32:03;;;;;;;4.78;4.38;;;5.10;99.90;;;;;;4975967;28;20224;-77
2021/03/10 00:34:29;;;;;;;4.93;4.50;;;5.10;99.90;;;;;;4976507;28;20228;-75
2021/03/10 00:36:56;;;;;;;4.38;4.07;;;5.00;99.90;;;;;;4972711;28;20239;-76
2021/03/10 00:39:23;;;;;;;4.25;3.95;;;5.10;99.90;;;;;;4976279;28;20295;-75
2021/03/10 00:41:49;;;;;;;4.47;4.18;;;5.10;99.90;;;;;;4979341;28;20251;-75
2021/03/10 00:44:17;;;;;;;4.32;3.92;;;5.10;99.90;;;;;;4979064;28;20231;-75
2021/03/10 00:46:43;;;;;;;4.20;3.90;;;5.00;99.90;;;;;;4985566;28;20237;-75
2021/03/10 00:49:10;;;;;;;4.63;4.22;;;5.10;99.90;;;;;;4981069;28;20715;-75
2021/03/10 00:51:36;;;;;;;4.30;3.97;;;5.00;99.90;;;;;;4989507;28;20232;-77
2021/03/10 00:54:03;;;;;;;4.60;4.22;;;5.00;99.90;;;;;;4986723;28;20232;-74
2021/03/10 00:56:30;;;;;;;4.20;3.90;;;5.00;99.90;;;;;;4978550;28;20220;-75
2021/03/10 00:58:56;;;;;;;4.20;3.90;;;4.90;99.90;;;;;;4980864;28;20224;-75
2021/03/10 01:01:24;;;;;;;4.57;4.28;;;4.90;99.90;;;;;;5003665;28;20220;-75
2021/03/10 01:03:50;;;;;;;4.97;4.57;;;4.90;99.90;;;;;;4989854;28;20213;-76
2021/03/10 01:06:17;;;;;;;4.75;4.38;;;4.80;99.90;;;;;;4990735;28;20223;-75
2021/03/10 01:08:43;;;;;;;5.28;4.78;;;4.70;99.90;;;;;;4985827;28;20599;-76
2021/03/10 01:11:10;;;;;;;5.50;5.03;;;4.70;99.90;;;;;;4991302;28;20354;-74
2021/03/10 01:13:37;;;;;;;6.22;5.63;;;4.60;99.90;;;;;;4981335;28;20226;-75
2021/03/10 01:16:04;;;;;;;5.70;5.22;;;4.50;99.90;;;;;;4986397;28;20232;-74
2021/03/10 01:18:31;;;;;;;5.47;4.97;;;4.50;99.90;;;;;;4985362;28;20224;-75
2021/03/10 01:20:58;;;;;;;5.13;4.70;;;4.50;99.90;;;;;;4994718;28;20216;-77
2021/03/10 01:23:24;;;;;;;4.75;4.35;;;4.50;99.90;;;;;;4987384;28;20216;-76
2021/03/10 01:25:51;;;;;;;4.85;4.32;;;4.50;99.90;;;;;;4993161;28;20224;-77
2021/03/10 01:28:17;;;;;;;4.72;4.32;;;4.50;99.90;;;;;;4990777;28;20233;-74
2021/03/10 01:30:44;;;;;;;4.45;4.07;;;4.50;99.90;;;;;;4988187;28;20236;-74
2021/03/10 01:33:10;;;;;;;5.18;4.78;;;4.50;99.90;;;;;;4986284;28;20232;-73
2021/03/10 01:35:38;;;;;;;4.68;4.38;;;4.50;99.90;;;;;;4987607;28;20232;-75
2021/03/10 01:38:05;;;;;;;5.07;4.68;;;4.50;99.90;;;;;;4989742;28;20618;-74
2021/03/10 01:40:31;;;;;;;4.70;4.30;;;4.60;99.90;;;;;;4984785;28;20232;-78
2021/03/10 01:43:02;;;;;;;4.13;3.83;;;4.50;99.90;;;;;;4988153;28;20256;-76
2021/03/10 01:45:28;;;;;;;4.78;4.47;;;4.50;99.90;;;;;;5003447;28;20216;-75
2021/03/10 01:47:56;;;;;;;4.25;3.95;;;4.50;99.90;;;;;;4991205;28;20721;-75
2021/03/10 01:50:26;;;;;;;4.55;4.25;;;4.50;99.90;;;;;;4987420;28;20232;-75
2021/03/10 01:52:55;;;;;;;4.50;4.20;;;4.60;99.90;;;;;;4989979;28;20236;-75
2021/03/10 01:55:22;;;;;;;4.78;4.47;;;4.60;99.90;;;;;;4990325;28;20234;-74
2021/03/10 01:57:49;;;;;;;5.15;4.75;;;4.50;99.90;;;;;;4987499;28;20224;-73
2021/03/10 02:00:17;;;;;;;4.45;4.15;;;4.50;99.90;;;;;;4988437;28;20709;-73
2021/03/10 02:02:44;;;;;;;4.80;4.40;;;4.40;99.90;;;;;;4991626;28;20280;-74
2021/03/10 02:05:16;;;;;;;4.22;3.92;;;4.40;99.90;;;;;;4990120;28;20233;-74
2021/03/10 02:07:54;;;;;;;4.10;3.80;;;4.40;99.90;;;;;;4990118;28;20221;-77
2021/03/10 02:10:40;;;;;;;4.68;4.32;;;4.40;99.90;;;;;;4985571;28;20221;-74
2021/03/10 02:13:13;;;;;;;4.15;3.85;;;4.40;99.90;;;;;;4988168;28;20730;-74
2021/03/10 02:15:49;;;;;;;4.13;3.83;;;4.40;99.90;;;;;;4984446;28;20703;-76
2021/03/10 02:18:24;;;;;;;4.18;3.88;;;4.40;99.90;;;;;;4991660;28;20641;-75
2021/03/10 02:20:54;;;;;;;4.32;3.92;;;4.30;99.90;;;;;;4989456;28;20715;-73
2021/03/10 02:23:42;;;;;;;4.07;3.78;;;4.30;99.90;;;;;;4984241;28;20226;-74
2021/03/10 02:26:43;;;;;;;4.53;4.20;;;4.30;99.90;;;;;;4987941;28;20236;-76
2021/03/10 02:29:13;;;;;;;4.45;4.05;;;4.30;99.90;;;;;;4988844;28;20220;-85
2021/03/10 02:31:45;;;;;;;4.13;3.83;;;4.30;99.90;;;;;;4999983;28;20216;-79
2021/03/10 02:34:13;;;;;;;4.10;3.90;;;4.30;99.90;;;;;;4987328;28;20224;-81
2021/03/10 02:36:41;;;;;;;4.20;3.90;;;4.40;99.90;;;;;;4984052;28;20225;-78
2021/03/10 02:39:10;;;;;;;3.92;3.72;;;4.30;99.90;;;;;;4984188;28;20711;-75
2021/03/10 02:41:36;;;;;;;3.83;3.63;;;4.30;99.90;;;;;;4982094;28;20578;-75
2021/03/10 02:44:05;;;;;;;3.83;3.53;;;4.30;99.90;;;;;;4989061;28;20236;-78
2021/03/10 02:46:33;;;;;;;4.30;4.00;;;4.30;99.90;;;;;;4983704;28;20224;-76
2021/03/10 02:49:00;;;;;;;4.50;4.20;;;4.30;99.90;;;;;;4982489;28;20244;-75
2021/03/10 02:51:27;;;;;;;5.03;4.63;;;4.30;99.90;;;;;;4986855;28;20224;-75
2021/03/10 02:53:55;;;;;;;4.30;4.00;;;4.30;99.90;;;;;;4988775;28;20221;-77
2021/03/10 02:56:22;;;;;;;4.07;3.78;;;4.20;99.90;;;;;;4985586;28;20235;-75
2021/03/10 02:58:49;;;;;;;4.50;4.20;;;4.20;99.90;;;;;;4984681;28;20239;-74
2021/03/10 03:01:16;;;;;;;4.60;4.30;;;4.30;99.90;;;;;;4987659;28;20592;-76
2021/03/10 03:03:43;;;;;;;4.38;3.97;;;4.20;99.90;;;;;;4986246;28;20736;-75
2021/03/10 03:06:10;;;;;;;4.35;4.05;;;4.20;99.90;;;;;;4981572;28;20609;-83
2021/03/10 03:08:37;;;;;;;3.97;3.67;;;4.20;99.90;;;;;;4983011;28;20229;-75
2021/03/10 03:11:04;;;;;;;3.88;3.58;;;4.20;99.90;;;;;;4978552;28;20242;-77
2021/03/10 03:13:32;;;;;;;4.25;3.95;;;4.20;99.90;;;;;;4993602;28;20722;-84
2021/03/10 03:16:01;;;;;;;3.95;3.70;;;4.10;99.90;;;;;;4986444;28;20232;-78
2021/03/10 03:18:28;;;;;;;3.97;3.72;;;4.10;99.90;;;;;;4989705;28;20639;-78
2021/03/10 03:20:59;;;;;;;4.47;4.18;;;4.00;99.90;;;;;;4986384;28;20283;-80
2021/03/10 03:23:27;;;;;;;4.18;3.88;;;4.00;99.90;;;;;;4983356;28;20287;-81
2021/03/10 03:25:55;;;;;;;4.38;4.07;;;3.90;99.90;;;;;;4987220;28;20710;-78
2021/03/10 03:28:25;;;;;;;4.07;3.78;;;3.90;99.90;;;;;;4986449;28;20219;-76
2021/03/10 03:30:53;;;;;;;3.95;3.67;;;3.90;99.90;;;;;;4987314;28;20599;-76
2021/03/10 03:33:27;;;;;;;4.45;4.15;;;3.90;99.90;;;;;;4987353;28;20224;-78
2021/03/10 03:35:57;;;;;;;3.85;3.55;;;3.90;99.90;;;;;;5002043;23;20220;-88
2021/03/10 03:38:25;;;;;;;4.00;3.70;;;3.90;99.90;;;;;;5008526;28;20281;-90
2021/03/10 03:40:53;;;;;;;4.30;4.00;;;3.80;99.90;;;;;;5005059;28;20291;-89
2021/03/10 03:43:20;;;;;;;4.10;3.80;;;3.80;99.90;;;;;;5010357;28;20224;-89
2021/03/10 03:45:47;;;;;;;4.00;3.70;;;3.80;99.90;;;;;;5010049;28;20227;-91
2021/03/10 03:48:14;;;;;;;5.03;4.63;;;3.80;99.90;;;;;;5002634;28;20701;-88
2021/03/10 03:50:42;;;;;;;4.90;4.10;;;3.70;99.90;;;;;;5009760;28;20224;-90
2021/03/10 03:53:12;;;;;;;4.28;3.97;;;3.70;99.90;;;;;;5008036;28;20278;-89
2021/03/10 03:55:38;;;;;;;4.35;4.05;;;3.80;99.90;;;;;;5006081;28;20231;-90
2021/03/10 03:58:05;;;;;;;4.63;4.32;;;3.70;99.90;;;;;;5019340;28;20238;-89
2021/03/10 04:00:32;;;;;;;3.88;3.67;;;3.70;99.90;;;;;;5012527;28;20231;-87
2021/03/10 04:02:59;;;;;;;4.25;3.95;;;3.70;99.90;;;;;;5011812;28;20228;-89
2021/03/10 04:05:26;;;;;;;4.25;3.95;;;3.70;99.90;;;;;;4999831;28;20224;-90
2021/03/10 04:07:54;;;;;;;4.10;3.80;;;3.70;99.90;;;;;;5007248;28;20220;-89
2021/03/10 04:10:23;;;;;;;3.67;3.47;;;3.70;99.90;;;;;;5006191;28;20236;-89
2021/03/10 04:12:50;;;;;;;4.00;3.70;;;3.70;99.90;;;;;;5006841;28;20231;-88
2021/03/10 04:15:18;;;;;;;3.83;3.60;;;3.70;99.90;;;;;;5011830;28;20227;-89
2021/03/10 04:17:44;;;;;;;4.00;3.80;;;3.70;99.90;;;;;;5008543;28;20223;-90
2021/03/10 04:20:13;;;;;;;4.00;3.50;;;3.70;99.90;;;;;;5011674;28;20240;-89
2021/03/10 04:22:40;;;;;;;4.13;3.83;;;3.70;99.90;;;;;;5010769;28;20222;-90
2021/03/10 04:25:08;;;;;;;4.45;4.10;;;3.60;99.90;;;;;;5007516;28;20225;-91
2021/03/10 04:27:36;;;;;;;4.30;3.90;;;3.60;99.90;;;;;;5007849;28;20243;-90
2021/03/10 04:30:04;;;;;;;3.97;3.67;;;3.60;99.90;;;;;;5009715;28;20220;-88
2021/03/10 04:32:31;;;;;;;4.47;4.18;;;3.60;99.90;;;;;;5006130;28;20219;-90
2021/03/10 04:34:58;;;;;;;4.40;4.10;;;3.50;99.90;;;;;;5008414;28;20223;-90
2021/03/10 04:37:24;;;;;;;3.90;3.70;;;3.50;99.90;;;;;;5006054;28;20254;-88
2021/03/10 04:39:51;;;;;;;3.92;3.70;;;3.50;99.90;;;;;;5010786;28;20282;-89
2021/03/10 04:42:18;;;;;;;4.13;3.88;;;3.50;99.90;;;;;;5022785;28;20212;-89
2021/03/10 04:44:46;;;;;;;4.10;3.80;;;3.50;99.90;;;;;;5012329;28;20224;-89
2021/03/10 04:47:12;;;;;;;4.03;3.83;;;3.50;99.90;;;;;;5005006;28;20244;-91
2021/03/10 04:49:39;;;;;;;4.30;4.00;;;3.50;99.90;;;;;;5010627;28;20228;-89
2021/03/10 04:52:06;;;;;;;4.30;4.00;;;3.50;99.90;;;;;;5012992;28;20813;-89
2021/03/10 04:54:33;;;;;;;4.30;4.00;;;3.50;99.90;;;;;;5005350;28;20228;-89
2021/03/10 04:56:59;;;;;;;4.50;4.10;;;3.50;99.90;;;;;;5014443;28;20251;-90
2021/03/10 04:59:26;;;;;;;4.60;4.20;;;3.50;99.90;;;;;;4990056;28;20268;-91
2021/03/10 05:01:53;;;;;;;3.75;3.53;;;3.50;99.90;;;;;;4999639;28;20674;-90
2021/03/10 05:04:20;;;;;;;3.97;3.67;;;3.40;99.90;;;;;;5006643;28;20256;-90
2021/03/10 05:06:46;;;;;;;4.07;3.88;;;3.40;99.90;;;;;;5018880;28;20216;-88
2021/03/10 05:09:13;;;;;;;4.50;4.20;;;3.40;99.90;;;;;;5009449;28;20243;-90
2021/03/10 05:11:40;;;;;;;4.20;3.90;;;3.40;99.90;;;;;;5008876;28;20224;-87
2021/03/10 05:14:06;;;;;;;4.25;3.95;;;3.40;99.90;;;;;;5012515;28;20235;-90
2021/03/10 05:16:33;;;;;;;5.00;4.70;;;3.40;99.90;;;;;;5014659;28;20254;-88
2021/03/10 05:19:01;;;;;;;4.70;4.30;;;3.40;99.90;;;;;;5006210;28;20665;-90
2021/03/10 05:21:27;;;;;;;4.93;4.60;;;3.30;99.90;;;;;;5001934;28;20283;-91
2021/03/10 05:23:54;;;;;;;5.15;4.72;;;3.30;99.90;;;;;;5003791;28;20278;-90
2021/03/10 05:26:20;;;;;;;5.65;5.15;;;3.30;99.90;;;;;;5025421;28;20220;-89
2021/03/10 05:28:47;;;;;;;4.85;4.55;;;3.30;99.90;;;;;;4997148;28;20237;-91
2021/03/10 05:31:14;;;;;;;4.93;4.55;;;3.30;99.90;;;;;;5012730;28;20838;-88
2021/03/10 05:33:40;;;;;;;4.90;4.60;;;3.30;99.90;;;;;;5008254;28;20220;-91
2021/03/10 05:36:09;;;;;;;5.13;4.63;;;3.30;99.90;;;;;;5005771;28;20226;-90
2021/03/10 05:38:35;;;;;;;4.70;4.35;;;3.20;99.90;;;;;;5014291;28;20245;-89
2021/03/10 05:41:02;;;;;;;4.50;4.20;;;3.20;99.90;;;;;;5008857;28;20224;-90
2021/03/10 05:43:30;;;;;;;4.78;4.47;;;3.20;99.90;;;;;;5012101;28;20236;-89
2021/03/10 05:45:57;;;;;;;5.22;4.82;;;3.20;99.90;;;;;;5007084;28;20232;-89
2021/03/10 05:48:23;;;;;;;4.45;4.15;;;3.20;99.90;;;;;;5015823;28;20235;-90
2021/03/10 05:50:50;;;;;;;5.05;4.72;;;3.20;99.90;;;;;;5013805;28;20259;-88
2021/03/10 05:53:22;;;;;;;4.38;4.07;;;3.10;99.90;;;;;;5012993;28;20636;-90
2021/03/10 05:55:50;;;;;;;4.68;4.38;;;3.10;99.90;;;;;;5010254;28;20228;-90
2021/03/10 05:58:17;;;;;;;5.35;4.95;;;3.10;99.90;;;;;;5012294;28;20228;-89
2021/03/10 06:00:44;;;;;;;5.22;4.82;;;3.10;99.90;;;;;;5015618;28;20216;-90
2021/03/10 06:03:12;;;;;;;4.85;4.53;;;3.10;99.90;;;;;;5013888;28;20232;-90
2021/03/10 06:05:39;;;;;;;4.25;3.95;;;3.00;99.90;;;;;;5010576;28;20226;-89
2021/03/10 06:08:07;;;;;;;4.93;4.63;;;3.10;99.90;;;;;;5012598;28;20228;-89
2021/03/10 06:10:42;;;;;;;4.55;4.25;;;3.10;99.90;;;;;;5025748;28;20213;-88
2021/03/10 06:13:23;;;;;;;5.15;4.78;;;3.10;99.90;;;;;;5013971;28;20710;-89
2021/03/10 06:15:51;;;;;;;4.35;4.05;;;3.10;99.90;;;;;;5007371;28;20220;-89
2021/03/10 06:18:25;;;;;;;4.80;4.50;;;3.10;99.90;;;;;;5012049;28;20220;-89
2021/03/10 06:21:04;;;;;;;4.82;4.50;;;3.10;99.90;;;;;;5007348;28;20216;-83
2021/03/10 06:23:30;;;;;;;4.78;4.47;;;3.20;99.90;;;;;;5003460;28;20219;-81
2021/03/10 06:25:58;;;;;;;4.30;4.00;;;3.20;99.90;;;;;;5001490;28;20271;-79
2021/03/10 06:28:35;;;;;;;4.43;4.13;;;3.20;99.90;;;;;;5003050;28;20232;-85
2021/03/10 06:31:01;;;;;;;4.43;4.13;;;3.20;99.90;;;;;;5003563;28;20223;-83
2021/03/10 06:33:28;;;;;;;4.53;4.22;;;3.10;99.90;;;;;;5003587;28;20270;-84
2021/03/10 06:35:54;;;;;;;4.72;4.13;;;3.10;99.90;;;;;;5001644;28;20220;-86
2021/03/10 06:38:21;;;;;;;5.18;4.78;;;3.20;99.90;;;;;;4997763;28;20227;-82
2021/03/10 06:40:50;;;;;;;5.72;5.25;;;3.60;99.90;;;;;;5003068;28;20217;-85
2021/03/10 06:43:17;;;;;;;5.53;5.13;;;4.30;99.90;;;;;;4999095;28;20220;-82
2021/03/10 06:45:44;;;;;;;5.50;5.00;;;4.90;99.90;;;;;;4998187;28;20224;-80
2021/03/10 06:48:21;;;;;;;4.97;4.57;;;5.50;99.90;;;;;;5001241;28;20286;-85
2021/03/10 06:50:50;;;;;;;4.72;4.43;;;6.20;99.90;;;;;;5004029;28;20215;-80
2021/03/10 06:53:16;;;;;;;5.78;5.20;;;6.80;99.90;;;;;;5009500;28;20216;-80
2021/03/10 06:55:44;;;;;;;5.05;4.65;;;7.20;99.90;;;;;;5005301;28;20283;-80
2021/03/10 06:58:13;;;;;;;5.03;4.63;;;7.60;99.90;;;;;;5045004;23;20272;-70
2021/03/10 07:00:40;;;;;;;5.60;5.05;;;8.00;99.90;;;;;;4957456;28;20259;-70
2021/03/10 07:03:07;;;;;;;5.50;5.10;;;8.40;99.90;;;;;;4982680;28;20224;-69
2021/03/10 07:05:33;;;;;;;5.60;5.10;;;8.70;99.90;;;;;;4982139;28;20273;-69
2021/03/10 07:08:01;;;;;;;5.30;4.90;;;8.90;99.90;;;;;;4980476;28;20711;-69
2021/03/10 07:10:28;;;;;;;5.65;4.85;;;9.00;99.90;;;;;;4976810;28;20729;-69
2021/03/10 07:12:59;;;;;;;5.13;4.72;;;9.20;99.90;;;;;;4982119;28;20976;-70
2021/03/10 07:15:27;;;;;;;4.53;4.22;;;9.50;99.90;;;;;;4979525;28;20710;-71
2021/03/10 07:17:58;;;;;;;4.50;4.20;;;9.80;99.90;;;;;;4981514;28;20221;-72
2021/03/10 07:20:25;;;;;;;4.97;4.57;;;10.00;99.90;;;;;;4983257;28;20213;-70
2021/03/10 07:23:02;;;;;;;4.93;4.53;;;10.20;99.90;;;;;;4986582;28;20235;-69
2021/03/10 07:25:32;;;;;;;4.35;3.95;;;10.40;99.90;;;;;;4983629;28;20224;-71
2021/03/10 07:28:02;;;;;;;5.60;5.10;;;10.40;99.90;;;;;;4986874;28;20221;-70
2021/03/10 07:30:37;;;;;;;5.57;5.13;;;10.20;99.90;;;;;;4983801;28;20714;-69
2021/03/10 07:33:09;;;;;;;5.60;5.05;;;10.20;99.90;;;;;;4985003;28;20235;-71
2021/03/10 07:35:53;;;;;;;5.53;5.05;;;10.40;99.90;;;;;;4981864;28;20225;-72
2021/03/10 07:38:22;;;;;;;5.22;4.78;;;10.70;99.90;;;;;;4977950;28;20287;-74
2021/03/10 07:41:07;;;;;;;5.25;4.78;;;10.90;99.90;;;;;;4971246;28;20241;-75
2021/03/10 07:43:38;;;;;;;5.35;4.93;;;11.10;99.90;;;;;;4969293;28;20221;-71
2021/03/10 07:46:17;;;;;;;4.85;4.45;;;11.30;99.90;;;;;;4968563;28;20224;-70
2021/03/10 07:48:45;;;;;;;4.93;4.53;;;11.70;99.90;;;;;;4971630;28;20312;-71
2021/03/10 07:51:22;;;;;;;5.32;4.70;;;11.80;99.90;;;;;;4971803;28;20217;-73
2021/03/10 07:53:48;;;;;;;5.45;4.95;;;11.60;99.90;;;;;;4973832;28;20232;-72
2021/03/10 07:56:23;;;;;;;4.82;4.43;;;11.60;99.90;;;;;;4970285;28;20230;-72
2021/03/10 07:58:50;;;;;;;4.57;4.18;;;11.90;99.90;;;;;;4973612;28;20713;-70
2021/03/10 08:01:17;;;;;;;4.93;4.50;;;12.20;99.90;;;;;;4972930;28;20217;-77
2021/03/10 08:03:44;;;;;;;5.65;5.15;;;12.30;99.90;;;;;;4977474;28;20977;-71
2021/03/10 08:06:12;;;;;;;4.40;4.00;;;12.50;99.90;;;;;;4975864;28;20225;-74
2021/03/10 08:08:40;;;;;;;4.93;4.53;;;12.80;99.90;;;;;;4974896;28;20236;-71
2021/03/10 08:11:12;;;;;;;5.78;4.63;;;13.00;99.90;;;;;;4975876;28;20687;-73
2021/03/10 08:13:39;;;;;;;5.07;4.45;;;13.00;99.90;;;;;;4974541;28;20231;-71
2021/03/10 08:16:08;;;;;;;6.18;4.63;;;12.90;99.90;;;;;;4970552;28;20233;-70
2021/03/10 08:18:36;;;;;;;5.20;4.70;;;12.80;99.90;;;;;;4974343;28;20436;-73
2021/03/10 08:21:12;;;;;;;5.55;5.05;;;12.70;99.90;;;;;;4974989;28;20220;-70
2021/03/10 08:23:39;;;;;;;4.70;4.30;;;12.80;99.90;;;;;;4969761;28;20221;-72
2021/03/10 08:26:08;;;;;;;5.90;4.72;;;13.10;99.90;;;;;;4974095;28;20556;-72
2021/03/10 08:28:36;;;;;;;4.45;4.05;;;13.40;99.90;;;;;;4972970;28;20228;-73
2021/03/10 08:31:05;;;;;;;5.00;4.45;;;13.60;99.90;;;;;;4975039;28;20259;-71
2021/03/10 08:33:32;;;;;;;5.03;4.22;;;13.90;99.90;;;;;;4972468;28;20596;-74
2021/03/10 08:36:00;;;;;;;6.13;4.50;;;14.10;99.90;;;;;;4971271;28;20226;-70
2021/03/10 08:38:32;;;;;;;5.32;4.30;;;14.10;99.90;;;;;;4970929;28;20220;-71
2021/03/10 08:41:05;;;;;;;5.30;4.80;;;13.90;99.90;;;;;;4975360;28;20268;-70
2021/03/10 08:43:32;;;;;;;5.72;4.97;;;13.80;99.90;;;;;;4972182;28;20287;-72
2021/03/10 08:45:59;;;;;;;6.22;4.32;;;13.80;99.90;;;;;;4976563;28;20777;-71
2021/03/10 08:48:32;;;;;;;5.43;4.18;;;14.00;99.90;;;;;;4977200;28;20231;-69
2021/03/10 08:51:00;;;;;;;4.45;4.05;;;14.00;99.90;;;;;;4971273;28;20278;-70
2021/03/10 08:53:27;;;;;;;4.72;4.30;;;14.10;99.90;;;;;;4976211;28;20652;-70
2021/03/10 08:56:04;;;;;;;5.35;4.85;;;13.80;99.90;;;;;;4973714;28;20227;-70
2021/03/10 08:58:30;;;;;;;6.03;4.82;;;14.00;99.90;;;;;;4975279;28;20587;-70
2021/03/10 09:00:57;;;;;;;5.70;4.82;;;14.00;99.90;;;;;;4972860;28;20224;-70
2021/03/10 09:03:23;;;;;;;5.40;4.90;;;14.10;99.90;;;;;;4973523;28;20216;-69
2021/03/10 09:05:51;;;;;;;6.00;4.97;;;13.90;99.90;;;;;;4973563;28;20224;-71
2021/03/10 09:08:22;;;;;;;4.40;4.05;;;13.80;99.90;;;;;;4976179;28;20235;-70
2021/03/10 09:10:52;;;;;;;5.28;4.78;;;13.60;99.90;;;;;;4973412;28;20224;-70
2021/03/10 09:13:20;;;;;;;5.13;4.72;;;13.50;99.90;;;;;;4972242;28;20571;-69
2021/03/10 09:15:47;;;;;;;4.85;4.45;;;13.30;99.90;;;;;;4974119;28;20396;-70
2021/03/10 09:18:13;;;;;;;5.28;4.53;;;13.20;99.90;;;;;;4971997;28;20721;-69
2021/03/10 09:20:41;;;;;;;4.65;4.05;;;13.30;99.90;;;;;;4970698;28;20502;-70
2021/03/10 09:23:09;;;;;;;4.93;4.53;;;13.40;99.90;;;;;;4977731;28;20282;-70
2021/03/10 09:25:37;;;;;;;4.93;4.22;;;13.50;99.90;;;;;;4981293;28;20233;-70
2021/03/10 09:28:06;;;;;;;5.47;4.65;;;13.90;99.90;;;;;;4980814;28;20524;-71
2021/03/10 09:30:35;;;;;;;6.70;5.07;;;14.00;99.90;;;;;;4977385;28;20458;-72
2021/03/10 09:33:02;;;;;;;4.50;4.10;;;14.00;99.90;;;;;;4980660;28;20395;-70
2021/03/10 09:38:19;;;;;;;5.75;4.32;;;14.40;98.90;;;;;;4978518;28;20217;-75
2021/03/10 09:40:50;;;;;;;9.50;4.90;;;14.40;99.10;;;;;;4979111;28;20257;-74
2021/03/10 09:43:18;;;;;;;5.93;4.88;;;14.60;98.80;;;;;;4982395;28;20220;-76
2021/03/10 09:45:47;;;;;;;4.65;4.25;;;14.90;98.80;;;;;;4982130;28;20228;-73
2021/03/10 09:48:18;;;;;;;5.38;4.90;;;15.00;95.60;;;;;;4984659;28;20330;-78
2021/03/10 09:50:47;;;;;;;5.40;4.90;;;14.90;97.10;;;;;;4983346;28;21334;-77
2021/03/10 09:53:16;;;;;;;4.93;4.53;;;14.80;95.80;;;;;;4987804;28;20251;-77
2021/03/10 09:55:43;;;;;;;4.72;4.32;;;14.50;95.10;;;;;;4989077;28;20231;-77
2021/03/10 09:58:11;;;;;;;4.43;4.07;;;14.40;93.90;;;;;;4986186;28;20731;-76
2021/03/10 10:00:40;;;;;;;4.30;4.00;;;14.70;93.90;;;;;;4987372;28;20235;-78
2021/03/10 10:03:08;;;;;;;4.03;3.72;;;15.10;92.90;;;;;;4986003;28;20228;-76
2021/03/10 10:05:36;;;;;;;5.13;4.60;;;15.30;93.00;;;;;;4987608;28;20337;-77
2021/03/10 10:08:04;;;;;;;4.50;4.10;;;15.30;90.30;;;;;;4987340;28;20231;-77
2021/03/10 10:10:31;;;;;;;4.88;4.47;;;15.50;91.90;;;;;;4988206;28;20268;-77
2021/03/10 10:12:59;;;;;;;4.60;4.20;;;15.40;91.90;;;;;;4983091;28;20283;-75
2021/03/10 10:15:27;;;;;;;4.63;4.25;;;15.30;91.40;;;;;;4979431;28;20225;-77
2021/03/10 10:17:55;;;;;;;4.60;4.25;;;15.30;92.00;;;;;;4980740;28;20244;-76
2021/03/10 10:20:25;;;;;;;4.85;4.45;;;15.70;91.30;;;;;;4981862;28;20228;-77
2021/03/10 10:22:53;;;;;;;4.78;4.38;;;15.70;90.50;;;;;;4980243;28;20236;-76
2021/03/10 10:25:20;;;;;;;6.18;5.13;;;15.80;90.00;;;;;;4980108;28;20243;-76
2021/03/10 10:27:48;;;;;;;5.75;4.65;;;15.60;90.40;;;;;;4987810;28;20232;-76
2021/03/10 10:30:18;;;;;;;5.07;4.68;;;15.60;89.60;;;;;;4989727;28;20468;-78
2021/03/10 10:32:46;;;;;;;5.15;4.65;;;15.50;90.60;;;;;;4996562;28;20220;-76
2021/03/10 10:35:14;;;;;;;5.45;4.53;;;15.50;90.20;;;;;;4988504;28;20242;-78
2021/03/10 10:37:42;;;;;;;5.30;4.90;;;15.80;88.30;;;;;;4984589;28;20232;-75
2021/03/10 10:40:12;;;;;;;5.55;5.05;;;15.60;84.70;;;;;;4982722;28;20442;-78
2021/03/10 10:42:39;;;;;;;5.20;4.70;;;15.10;83.30;;;;;;4983696;28;20221;-76
2021/03/10 10:45:08;;;;;;;5.45;4.93;;;15.10;87.20;;;;;;4979331;28;20485;-77
2021/03/10 10:47:35;;;;;;;5.40;5.00;;;15.10;87.60;;;;;;4982855;28;20237;-76
2021/03/10 10:50:04;;;;;;;5.00;4.60;;;15.10;86.20;;;;;;4987874;28;20712;-77
2021/03/10 10:52:31;;;;;;;5.95;4.97;;;15.20;86.40;;;;;;4988223;28;20224;-76
2021/03/10 10:54:59;;;;;;;5.70;5.20;;;15.10;82.70;;;;;;4986090;28;20227;-77
2021/03/10 10:57:26;;;;;;;4.95;4.55;;;15.00;81.50;;;;;;4991754;28;20236;-76
2021/03/10 10:59:52;;;;;;;4.97;4.57;;;15.40;83.80;;;;;;4988020;28;20216;-77
2021/03/10 11:02:19;;;;;;;4.65;4.25;;;15.50;81.90;;;;;;4984854;28;20220;-76
2021/03/10 11:04:46;;;;;;;5.25;4.80;;;15.80;82.70;;;;;;4990276;28;20229;-78
2021/03/10 11:07:12;;;;;;;5.30;4.80;;;15.70;82.20;;;;;;4987396;28;20228;-76
2021/03/10 11:09:40;;;;;;;5.45;4.95;;;15.60;83.40;;;;;;4981350;28;20287;-76
2021/03/10 11:12:11;;;;;;;5.57;5.07;;;15.70;83.10;;;;;;4990039;28;20315;-76
2021/03/10 11:14:38;;;;;;;5.53;4.90;;;15.80;82.40;;;;;;4991622;28;20312;-76
2021/03/10 11:17:05;;;;;;;5.95;5.45;;;15.80;82.40;;;;;;4985312;28;20267;-76
2021/03/10 11:19:31;;;;;;;5.60;5.10;;;15.60;81.90;;;;;;4983864;28;20225;-76
2021/03/10 11:21:58;;;;;;;5.40;4.57;;;15.70;83.80;;;;;;4982702;28;20217;-75
2021/03/10 11:24:24;;;;;;;5.03;4.57;;;15.50;82.40;;;;;;4982065;28;20368;-76
2021/03/10 11:26:51;;;;;;;4.22;3.92;;;15.90;82.90;;;;;;4985030;28;20257;-77
2021/03/10 11:29:19;;;;;;;5.75;5.25;;;16.10;83.50;;;;;;4985556;28;20707;-75
2021/03/10 11:31:45;;;;;;;5.53;5.03;;;16.40;83.10;;;;;;4986057;28;20566;-76
2021/03/10 11:34:12;;;;;;;4.80;4.40;;;16.40;81.00;;;;;;4986282;28;20232;-77
2021/03/10 11:36:39;;;;;;;4.30;4.00;;;16.20;80.30;;;;;;4986553;28;20224;-76
2021/03/10 11:39:07;;;;;;;4.72;4.15;;;15.90;79.80;;;;;;4985532;28;20216;-76
2021/03/10 11:41:34;;;;;;;4.57;4.18;;;15.80;78.90;;;;;;4984753;28;20706;-77
2021/03/10 11:44:01;;;;;;;4.68;4.28;;;15.70;79.00;;;;;;4980276;28;20229;-78
2021/03/10 11:46:29;;;;;;;3.95;3.65;;;15.70;76.20;;;;;;4979603;28;20275;-77
2021/03/10 11:48:56;;;;;;;4.30;4.00;;;15.70;77.80;;;;;;4984914;28;20229;-77
2021/03/10 11:51:22;;;;;;;3.75;3.45;;;15.70;74.10;;;;;;4984815;28;20236;-77
2021/03/10 11:53:49;;;;;;;3.80;3.50;;;15.70;73.90;;;;;;4983656;28;20278;-77
2021/03/10 11:56:16;;;;;;;3.50;3.20;;;15.80;75.30;;;;;;4983181;28;20703;-78
2021/03/10 11:58:42;;;;;;;3.67;3.38;;;16.30;76.60;;;;;;4984486;28;20237;-76
2021/03/10 12:01:09;;;;;;;3.83;3.53;;;16.60;74.90;;;;;;4982560;28;20254;-78
2021/03/10 12:03:39;;;;;;;4.03;3.72;;;16.80;75.20;;;;;;4977079;28;20232;-77
2021/03/10 12:06:06;;;;;;;4.28;3.88;;;16.60;75.70;;;;;;4958230;28;20233;-78
2021/03/10 12:08:33;;;;;;;4.78;3.80;;;16.50;70.90;;;;;;4981674;28;20229;-77
2021/03/10 12:11:00;;;;;;;3.83;3.53;;;16.20;73.40;;;;;;4981576;28;20221;-76
2021/03/10 12:13:27;;;;;;;4.07;3.65;;;16.00;73.20;;;;;;4982783;28;20673;-77
2021/03/10 12:15:55;;;;;;;3.95;3.65;;;16.00;74.80;;;;;;4978767;28;20232;-76
2021/03/10 12:18:21;;;;;;;4.22;3.92;;;16.10;74.80;;;;;;4980436;28;20224;-76
2021/03/10 12:20:49;;;;;;;4.07;3.78;;;16.20;73.30;;;;;;4981766;28;20224;-77
2021/03/10 12:23:16;;;;;;;4.65;3.78;;;16.10;70.60;;;;;;4980306;28;20233;-78
2021/03/10 12:25:43;;;;;;;3.67;3.38;;;15.90;72.40;;;;;;4986586;28;20228;-76
2021/03/10 12:28:10;;;;;;;3.90;3.60;;;15.90;71.00;;;;;;4986240;28;20229;-77
2021/03/10 12:30:37;;;;;;;3.83;3.53;;;15.90;70.00;;;;;;4984537;28;20232;-76
2021/03/10 12:33:03;;;;;;;3.70;3.35;;;15.80;70.70;;;;;;4980199;28;20220;-75
2021/03/10 12:35:30;;;;;;;3.40;3.10;;;16.10;73.50;;;;;;4979293;28;20747;-77
2021/03/10 12:37:58;;;;;;;3.85;3.55;;;16.40;72.40;;;;;;4985837;28;20702;-76
2021/03/10 12:40:25;;;;;;;3.25;2.95;;;16.30;70.00;;;;;;4986315;28;20229;-77
2021/03/10 12:42:55;;;;;;;3.53;3.22;;;16.20;71.20;;;;;;4979066;28;20225;-76
2021/03/10 12:45:22;;;;;;;3.45;3.17;;;16.10;70.30;;;;;;4981067;28;20287;-76
2021/03/10 12:47:48;;;;;;;5.68;3.22;;;15.90;70.90;;;;;;4980687;28;20236;-76
2021/03/10 12:50:16;;;;;;;3.53;3.20;;;15.80;71.40;;;;;;4987324;28;20229;-79
2021/03/10 12:52:42;;;;;;;3.50;3.20;;;15.60;71.40;;;;;;4989259;28;20225;-76
2021/03/10 12:55:11;;;;;;;4.03;3.17;;;15.60;70.80;;;;;;4987159;28;20224;-75
2021/03/10 12:57:38;;;;;;;3.15;2.95;;;15.80;69.40;;;;;;4978684;28;20225;-75
2021/03/10 13:00:07;;;;;;;3.08;2.88;;;15.90;70.00;;;;;;4990257;28;22503;-75